首页
METAR-TAF:

METAR-TAF

机场 :

Douglas Municipal Airport

道格拉斯, 喬治亞, 美国

纬度: 31-28-36N, 经度: 082-51-37W, 海拔: 78米

当前天气观测

该预报发布于16分钟前的00:55 UTC
风速9节,风向东转东北
温度 24°C
湿度 83%
气压 1015 hPa
能見度: 16.1公里
多云层高于2000英尺
多云层高于3300英尺
阴天层高于5000英尺

METAR: KDQH 270055Z AUTO 06009KT 10SM BKN020 BKN033 OVC050 24/21 A2997 RMK AO2 T02360210

时间: 21:11 (01:11 UTC)


TAF: 丢失

超过4000个机场的气象观测和天气预报(METAR&TAF报告)。

可查询的气象台以黄色和红色小点在地图上表示。

将鼠标移到小点上方,可查看气象台名称。

然后点击查看天气观测和预报。

如需切换地图:点击带黑十字的绿色按钮放大地图;点击带横线的绿色按钮缩小地图;或者点击绿色箭头查看邻近地区的地图。


METAR-TAF: